Flight Track Log - Related Links

Times and Time Zones

All times are in EDT time to prevent confusion due to time zone crossing. See the N618JB flight status page for this flight to view local times or setup timezone preferences in your user account.

Time Position Orientation Groundspeed Altitude Reporting Facility
EDT Latitude Longitude Course Direction KTS MPH feet Rate Location/Type
Tue 06:18:52 AM 40.6500 -74.1833 224° Southwest 176 203 2,100  Level New York TRACON
Tue 06:19:46 AM 40.6000 -74.2167 207° Southwest 233 268 3,700 1,950 Climbing New York TRACON
Tue 06:20:52 AM 40.5333 -74.2667 210° Southwest 267 307 6,000 1,150 Climbing New York TRACON
Tue 06:21:00 AM 40.2556 -74.1648 194° South  Level FlightAware Approximate
Tue 06:21:46 AM 40.4667 -74.2333 159° South 286 329 6,000  Level New York TRACON
Tue 06:22:00 AM 40.1422 -74.2000 180° South  Level FlightAware Approximate
Tue 06:23:00 AM 40.0301 -74.2333 180° South  Level FlightAware Approximate
Tue 06:23:51 AM 40.3192 -74.1656 161° South 296 341 8,200  Level New York Center
Tue 06:24:00 AM 39.9311 -74.3070 224° Southwest  Level FlightAware Approximate
Tue 06:24:52 AM 40.2414 -74.1861 191° South 279 321 10,800  Level New York Center
Tue 06:26:30 AM 40.0933 -74.2275 192° South 341 392 14,600 2,392 Climbing Washington Center
Tue 06:27:30 AM 39.9958 -74.2644 196° South 357 411 17,100 2,300 Climbing Washington Center
Tue 06:28:30 AM 39.9133 -74.3417 216° Southwest 362 417 19,200 2,200 Climbing Washington Center
Tue 06:29:30 AM 39.8267 -74.4244 216° Southwest 377 434 21,500 2,150 Climbing Washington Center
Tue 06:30:30 AM 39.7503 -74.5200 224° Southwest 390 449 23,500 1,900 Climbing Washington Center
Tue 06:31:30 AM 39.6719 -74.6236 226° Southwest 396 456 25,300 1,650 Climbing Washington Center
Tue 06:32:30 AM 39.5875 -74.7381 226° Southwest 396 456 26,800 1,450 Climbing Washington Center
Tue 06:33:30 AM 39.5069 -74.8464 226° Southwest 407 468 28,200 1,400 Climbing Washington Center
Tue 06:34:30 AM 39.4242 -74.9522 225° Southwest 407 468 29,600 1,400 Climbing Washington Center
Tue 06:35:30 AM 39.3372 -75.0550 222° Southwest 413 475 31,000 1,550 Climbing Washington Center
Tue 06:36:30 AM 39.2356 -75.1361 212° Southwest 425 489 32,700 1,500 Climbing Washington Center
Tue 06:37:30 AM 39.1169 -75.1878 199° South 434 499 34,000 1,400 Climbing Washington Center
Tue 06:38:30 AM 39.0025 -75.2417 200° South 441 507 35,500 1,000 Climbing Washington Center
Tue 06:39:30 AM 38.8919 -75.2956 201° Southwest 441 507 36,000 250 Climbing Washington Center
Tue 06:40:30 AM 38.7839 -75.3625 206° Southwest 436 502 36,000  Level Washington Center
Tue 06:41:30 AM 38.6775 -75.4294 206° Southwest 436 502 36,000  Level Washington Center
Tue 06:42:30 AM 38.5692 -75.4933 205° Southwest 436 502 36,000 -50 Level Washington Center
Tue 06:43:30 AM 38.4631 -75.5600 206° Southwest 431 496 35,900  Descending Washington Center
Tue 06:44:30 AM 38.3544 -75.6181 203° Southwest 431 496 36,000 50 Climbing Washington Center
Tue 06:45:30 AM 38.2544 -75.6789 206° Southwest 425 489 36,000  Level Washington Center
Tue 06:46:30 AM 38.1481 -75.7397 204° Southwest 425 489 36,000 -50 Level Washington Center
Tue 06:47:30 AM 38.0311 -75.8158 207° Southwest 425 489 35,900  Descending Washington Center
Tue 06:48:30 AM 37.9331 -75.8683 203° Southwest 425 489 36,000 50 Climbing Washington Center
Tue 06:49:30 AM 37.8264 -75.9308 205° Southwest 425 489 36,000  Level Washington Center
Tue 06:50:30 AM 37.7075 -76.0064 207° Southwest 425 489 36,000 -50 Level Washington Center
Tue 06:51:30 AM 37.6008 -76.0689 205° Southwest 425 489 35,900  Descending Washington Center
Tue 06:52:30 AM 37.4919 -76.1336 205° Southwest 425 489 36,000 50 Climbing Washington Center
Tue 06:53:30 AM 37.3811 -76.1903 202° Southwest 425 489 36,000  Level Washington Center
Tue 06:54:30 AM 37.2725 -76.2522 204° Southwest 425 489 36,000  Level Washington Center
Tue 06:55:30 AM 37.1614 -76.3164 205° Southwest 431 496 36,000  Level Washington Center
Tue 06:56:30 AM 37.0525 -76.3806 205° Southwest 431 496 36,000  Level Washington Center
Tue 06:57:30 AM 36.9417 -76.4417 204° Southwest 436 502 36,000  Level Washington Center
Tue 06:58:30 AM 36.8347 -76.5053 205° Southwest 436 502 36,000  Level Washington Center
Tue 06:59:30 AM 36.7258 -76.5689 205° Southwest 436 502 36,000  Level Washington Center
Tue 07:00:30 AM 36.6272 -76.6247 204° Southwest 430 495 36,000  Level Washington Center
Tue 07:01:30 AM 36.5203 -76.6853 204° Southwest 430 495 36,000  Level Washington Center
Tue 07:02:30 AM 36.4114 -76.7483 205° Southwest 430 495 36,000  Level Washington Center
Tue 07:03:30 AM 36.3022 -76.8086 204° Southwest 430 495 36,000  Level Washington Center
Tue 07:04:30 AM 36.1911 -76.8686 204° Southwest 430 495 36,000  Level Washington Center
Tue 07:05:30 AM 36.0839 -76.9286 204° Southwest 430 495 36,000  Level Washington Center
Tue 07:06:30 AM 35.9747 -76.9908 205° Southwest 430 495 36,000  Level Washington Center
Tue 07:07:30 AM 35.8614 -77.0528 204° Southwest 430 495 36,000  Level Washington Center
Tue 07:08:30 AM 35.7500 -77.1097 203° Southwest 435 501 36,000  Level Washington Center
Tue 07:09:30 AM 35.6344 -77.1792 206° Southwest 428 493 36,000  Level Washington Center
Tue 07:10:30 AM 35.5231 -77.2406 204° Southwest 428 493 36,000  Level Washington Center
Tue 07:11:30 AM 35.4114 -77.3022 204° Southwest 433 498 36,000  Level Washington Center
Tue 07:12:30 AM 35.3000 -77.3633 204° Southwest 438 504 36,000  Level Washington Center
Tue 07:13:30 AM 35.1906 -77.4219 204° Southwest 438 504 36,000  Level Washington Center
Tue 07:14:30 AM 35.0769 -77.4828 204° Southwest 438 504 36,000  Level Washington Center
Tue 07:15:30 AM 34.9656 -77.5436 204° Southwest 438 504 36,000  Level Washington Center
Tue 07:16:30 AM 34.8558 -77.6042 204° Southwest 443 510 36,000  Level Washington Center
Tue 07:17:30 AM 34.7464 -77.6672 205° Southwest 443 510 36,000 -50 Level Washington Center
Tue 07:18:30 AM 34.6369 -77.7250 203° Southwest 438 504 35,900 -50 Descending Washington Center
Tue 07:19:30 AM 34.5272 -77.7853 204° Southwest 438 504 35,900 50 Level Washington Center
Tue 07:20:30 AM 34.4136 -77.8450 203° Southwest 443 510 36,000 50 Climbing Washington Center
Tue 07:21:30 AM 34.3000 -77.8922 199° South 443 510 36,000  Level Washington Center
Tue 07:22:30 AM 34.1844 -77.9242 193° South 449 517 36,000  Level Washington Center
Tue 07:24:03 AM 33.9972 -77.9758 193° South 431 496 36,000  Level Jacksonville Center
Tue 07:25:03 AM 33.8775 -78.0100 193° South 442 509 36,000  Level Jacksonville Center
Tue 07:26:03 AM 33.7536 -78.0444 193° South 450 518 36,000  Level Jacksonville Center
Tue 07:27:03 AM 33.6300 -78.0836 195° South 450 518 36,000 -50 Level Jacksonville Center
Tue 07:28:03 AM 33.5081 -78.1175 193° South 450 518 35,900  Descending Jacksonville Center
Tue 07:29:03 AM 33.3864 -78.1539 194° South 450 518 36,000 50 Climbing Jacksonville Center
Tue 07:30:03 AM 33.2647 -78.1878 193° South 450 518 36,000  Level Jacksonville Center
Tue 07:31:03 AM 33.1447 -78.2214 193° South 450 518 36,000  Level Jacksonville Center
Tue 07:32:03 AM 33.0231 -78.2550 193° South 450 518 36,000  Level Jacksonville Center
Tue 07:33:03 AM 32.9011 -78.2883 193° South 450 518 36,000  Level Jacksonville Center
Tue 07:34:03 AM 32.7792 -78.3244 194° South 450 518 36,000  Level Jacksonville Center
Tue 07:35:03 AM 32.6572 -78.3575 193° South 450 518 36,000  Level Jacksonville Center
Tue 07:36:03 AM 32.5333 -78.3933 194° South 450 518 36,000  Level Jacksonville Center
Tue 07:37:03 AM 32.4092 -78.4242 192° South 450 518 36,000  Level Jacksonville Center
Tue 07:38:03 AM 32.2792 -78.4672 196° South 445 512 36,000  Level Jacksonville Center
Tue 07:39:03 AM 32.1572 -78.5028 194° South 450 518 36,000 -50 Level Jacksonville Center
Tue 07:40:03 AM 32.0353 -78.5381 194° South 450 518 35,900  Descending Jacksonville Center
Tue 07:41:03 AM 31.9156 -78.5753 195° South 450 518 36,000 50 Climbing Jacksonville Center
Tue 07:42:03 AM 31.7956 -78.6078 193° South 443 510 36,000  Level Jacksonville Center
Tue 07:43:03 AM 31.6736 -78.6428 194° South 448 516 36,000  Level Jacksonville Center
Tue 07:44:03 AM 31.5494 -78.6803 194° South 454 522 36,000  Level Jacksonville Center
Tue 07:45:03 AM 31.4336 -78.7097 192° South 448 516 36,000  Level Jacksonville Center
Tue 07:46:03 AM 31.3075 -78.7494 195° South 448 516 36,000  Level Jacksonville Center
Tue 07:47:03 AM 31.1878 -78.7839 194° South 453 521 36,000  Level Jacksonville Center
Tue 07:48:03 AM 31.0675 -78.8133 192° South 445 512 36,000  Level Jacksonville Center
Tue 07:49:03 AM 30.9475 -78.8500 195° South 445 512 36,000 -50 Level Jacksonville Center
Tue 07:50:03 AM 30.8214 -78.8819 192° South 456 525 35,900  Descending Jacksonville Center
Tue 07:51:03 AM 30.7033 -78.9183 195° South 448 516 36,000  Climbing Jacksonville Center
Tue 07:52:03 AM 30.5814 -78.9525 194° South 456 525 35,900  Descending Jacksonville Center
Tue 07:53:03 AM 30.4592 -78.9839 192° South 456 525 36,000 48 Climbing Jacksonville Center
Tue 07:54:08 AM 30.3433 -79.0186 195° South 438 504 36,000  Level Miami Center
Tue 07:55:08 AM 30.2197 -79.0497 192° South 440 506 36,000  Level Miami Center
Tue 07:56:08 AM 30.0922 -79.0711 188° South 452 520 36,000  Level Miami Center
Tue 07:57:08 AM 29.9542 -79.0994 190° South 462 532 36,000  Level Miami Center
Tue 07:58:08 AM 29.8328 -79.1256 191° South 462 532 36,000  Level Miami Center
Tue 07:59:08 AM 29.7033 -79.1444 187° South 462 532 36,000  Level Miami Center
Tue 08:00:08 AM 29.5717 -79.1631 187° South 469 540 36,000  Level Miami Center
Tue 08:01:08 AM 29.4522 -79.1892 191° South 469 540 36,000  Level Miami Center
Tue 08:02:08 AM 29.3289 -79.2150 190° South 463 533 36,000  Level Miami Center
Tue 08:03:08 AM 29.2033 -79.2361 188° South 463 533 36,000  Level Miami Center
Tue 08:04:08 AM 29.0797 -79.2597 189° South 469 540 36,000  Level Miami Center
Tue 08:05:08 AM 28.9544 -79.2783 187° South 463 533 36,000  Level Miami Center
Tue 08:06:08 AM 28.8289 -79.2992 188° South 463 533 36,000  Level Miami Center
Tue 08:07:08 AM 28.7053 -79.3200 188° South 457 526 36,000  Level Miami Center
Tue 08:08:08 AM 28.5797 -79.3386 187° South 457 526 36,000  Level Miami Center
Tue 08:09:08 AM 28.4583 -79.3619 190° South 452 520 36,000 -200 Level Miami Center
Tue 08:10:08 AM 28.3347 -79.3853 189° South 452 520 35,600 -700 Descending Miami Center
Tue 08:11:08 AM 28.2156 -79.4036 188° South 452 520 34,600 -950 Descending Miami Center
Tue 08:12:08 AM 28.0919 -79.4244 188° South 452 520 33,700 -950 Descending Miami Center
Tue 08:13:08 AM 27.9706 -79.4475 190° South 445 512 32,700 -1,200 Descending Miami Center
Tue 08:14:08 AM 27.8469 -79.4683 188° South 445 512 31,300 -1,900 Descending Miami Center
Tue 08:15:08 AM 27.7381 -79.4844 187° South 445 512 28,900 -2,250 Descending Miami Center
Tue 08:16:08 AM 27.6186 -79.5028 188° South 445 512 26,800 -2,350 Descending Miami Center
Tue 08:17:08 AM 27.4931 -79.5258 189° South 434 499 24,200 -1,400 Descending Miami Center
Tue 08:18:08 AM 27.3778 -79.5464 189° South 428 493 24,000 -750 Descending Miami Center
Tue 08:19:08 AM 27.2647 -79.5650 188° South 421 484 22,700 -1,650 Descending Miami Center
Tue 08:20:08 AM 27.1661 -79.5836 190° South 406 467 20,700 -2,000 Descending Miami Center
Tue 08:21:08 AM 27.0594 -79.5997 188° South 400 460 18,700 -2,150 Descending Miami Center
Tue 08:22:08 AM 26.9503 -79.6181 189° South 379 436 16,400 -2,150 Descending Miami Center
Tue 08:23:08 AM 26.8497 -79.6367 189° South 374 430 14,400 -1,900 Descending Miami Center
Tue 08:24:08 AM 26.7592 -79.6811 204° Southwest 365 420 12,600 -2,000 Descending Miami Center
Tue 08:25:08 AM 26.6728 -79.7231 203° Southwest 346 398 10,400 -1,604 Descending Miami Center
Tue 08:25:49 AM 26.6136 -79.7519 204° Southwest 312 359 9,900 -900 Descending Miami Center
Tue 08:26:08 AM 26.5903 -79.7631 203° Southwest 330 380 9,500 -1,574 Descending Miami Center
Tue 08:26:50 AM 26.5336 -79.7872 201° Southwest 296 341 8,300 -1,400 Descending Miami Center
Tue 08:27:08 AM 26.5167 -79.7961 205° Southwest 304 350 8,100 -218 Descending Miami Center
Tue 08:27:45 AM 26.4661 -79.8181 201° Southwest 294 338 8,100  Level Miami Center
Tue 08:28:08 AM 26.4386 -79.8311 203° Southwest 299 344 8,100  Level Miami Center
Tue 08:28:40 AM 26.3944 -79.8533 204° Southwest 295 339 8,100  Level Miami Center
Tue 08:29:08 AM 26.3731 -79.8667 209° Southwest 294 338 8,100  Level Miami Center
Tue 08:29:54 AM 26.3178 -79.9208 221° Southwest 295 339 8,100 -120 Level Miami Center
Tue 08:30:48 AM 26.2622 -79.9750 221° Southwest 295 339 7,900 -405 Descending Miami Center
Tue 08:31:08 AM 26.2517 -79.9842 218° Southwest 299 344 7,600 -1,412 Descending Miami Center
Tue 08:31:56 AM 26.1919 -80.0428 221° Southwest 287 330 6,300 -826 Descending Miami Center
Tue 08:32:57 AM 26.1608 -80.1206 246° West 278 320 6,100 -182 Descending Miami Center
Tue 08:34:08 AM 26.1528 -80.2014 264° West 273 314 5,900 -934 Descending Miami Center
Tue 08:34:59 AM 26.1492 -80.2731 267° West 228 262 4,200 -1,607 Descending Miami Center
Tue 08:36:00 AM 26.1353 -80.3303 255° West 187 215 2,900 -1,180 Descending Miami Center
Tue 08:37:01 AM 26.0958 -80.3131 159° South 160 184 1,800 -517 Descending Miami Center
Tue 08:37:56 AM 26.0739 -80.2731 121° Southeast 164 189 1,900 -393 Climbing Miami Center
Tue 08:39:03 AM 26.0750 -80.2244 89° East 123 142 1,000 -703 Descending Miami Center
Tue 08:40:04 AM 26.0739 -80.1853 92° East 124 143 400 -590 Descending Miami Center
Tue 08:42:00 AM 26.0667 -80.1500 103° East  Level FlightAware Approximate

Login

Don't have an account? Register now (free) for customized features, flight alerts, and more!